sensor_id;sensor_type;location;lat;lon;timestamp;pressure;altitude;pressure_sealevel;temperature;humidity
68075;BME280;54864;52.002;5.468;2023-02-04T00:00:04;103109.03;;;10.58;66.10
68075;BME280;54864;52.002;5.468;2023-02-04T00:01:07;103107.28;;;10.59;66.06
68075;BME280;54864;52.002;5.468;2023-02-04T00:02:09;103104.66;;;10.56;65.96
68075;BME280;54864;52.002;5.468;2023-02-04T00:03:09;103111.66;;;10.58;66.19
68075;BME280;54864;52.002;5.468;2023-02-04T00:04:12;103105.53;;;10.58;66.13
68075;BME280;54864;52.002;5.468;2023-02-04T00:05:13;103109.06;;;10.54;66.40
68075;BME280;54864;52.002;5.468;2023-02-04T00:06:16;103105.56;;;10.55;66.38
68075;BME280;54864;52.002;5.468;2023-02-04T00:07:17;103107.25;;;10.60;66.25
68075;BME280;54864;52.002;5.468;2023-02-04T00:08:19;103109.88;;;10.62;66.10
68075;BME280;54864;52.002;5.468;2023-02-04T00:09:20;103111.66;;;10.61;66.40
68075;BME280;54864;52.002;5.468;2023-02-04T00:10:21;103116.91;;;10.61;66.22
68075;BME280;54864;52.002;5.468;2023-02-04T00:11:22;103108.13;;;10.61;66.23
68075;BME280;54864;52.002;5.468;2023-02-04T00:12:25;103113.38;;;10.64;66.50
68075;BME280;54864;52.002;5.468;2023-02-04T00:13:26;103112.50;;;10.63;66.64
68075;BME280;54864;52.002;5.468;2023-02-04T00:14:28;103109.91;;;10.59;66.58
68075;BME280;54864;52.002;5.468;2023-02-04T00:15:29;103120.44;;;10.60;66.85
68075;BME280;54864;52.002;5.468;2023-02-04T00:16:30;103116.19;;;10.45;67.08
68075;BME280;54864;52.002;5.468;2023-02-04T00:17:31;103125.00;;;10.35;67.45
68075;BME280;54864;52.002;5.468;2023-02-04T00:18:33;103125.88;;;10.40;67.67
68075;BME280;54864;52.002;5.468;2023-02-04T00:19:34;103124.94;;;10.47;67.57
68075;BME280;54864;52.002;5.468;2023-02-04T00:20:35;103131.97;;;10.48;67.42
68075;BME280;54864;52.002;5.468;2023-02-04T00:21:36;103124.06;;;10.47;67.71
68075;BME280;54864;52.002;5.468;2023-02-04T00:22:38;103133.75;;;10.48;67.56
68075;BME280;54864;52.002;5.468;2023-02-04T00:23:39;103139.00;;;10.48;67.41
68075;BME280;54864;52.002;5.468;2023-02-04T00:24:40;103134.59;;;10.50;67.50
68075;BME280;54864;52.002;5.468;2023-02-04T00:25:47;103133.75;;;10.48;67.58
68075;BME280;54864;52.002;5.468;2023-02-04T00:26:48;103142.53;;;10.45;67.97
68075;BME280;54864;52.002;5.468;2023-02-04T00:27:51;103131.16;;;10.40;67.98
68075;BME280;54864;52.002;5.468;2023-02-04T00:28:53;103134.66;;;10.39;67.97
68075;BME280;54864;52.002;5.468;2023-02-04T00:29:53;103138.16;;;10.40;67.92
68075;BME280;54864;52.002;5.468;2023-02-04T00:30:56;103136.47;;;10.31;68.14
68075;BME280;54864;52.002;5.468;2023-02-04T00:31:57;103135.59;;;10.32;68.47
68075;BME280;54864;52.002;5.468;2023-02-04T00:32:59;103137.38;;;10.27;68.60
68075;BME280;54864;52.002;5.468;2023-02-04T00:34:00;103139.13;;;10.27;68.46
68075;BME280;54864;52.002;5.468;2023-02-04T00:35:01;103133.88;;;10.24;68.73
68075;BME280;54864;52.002;5.468;2023-02-04T00:36:05;103140.00;;;10.27;68.72
68075;BME280;54864;52.002;5.468;2023-02-04T00:37:07;103137.38;;;10.26;68.40
68075;BME280;54864;52.002;5.468;2023-02-04T00:38:07;103131.25;;;10.24;68.69
68075;BME280;54864;52.002;5.468;2023-02-04T00:39:09;103138.28;;;10.17;68.82
68075;BME280;54864;52.002;5.468;2023-02-04T00:40:11;103140.94;;;10.14;69.21
68075;BME280;54864;52.002;5.468;2023-02-04T00:41:13;103143.59;;;10.12;69.45
68075;BME280;54864;52.002;5.468;2023-02-04T00:42:13;103142.69;;;10.15;69.32
68075;BME280;54864;52.002;5.468;2023-02-04T00:43:17;103138.31;;;10.14;69.20
68075;BME280;54864;52.002;5.468;2023-02-04T00:44:17;103142.69;;;10.15;69.30
68075;BME280;54864;52.002;5.468;2023-02-04T00:45:19;103135.72;;;10.09;68.97
68075;BME280;54864;52.002;5.468;2023-02-04T00:46:20;103141.88;;;10.08;69.15
68075;BME280;54864;52.002;5.468;2023-02-04T00:47:22;103145.41;;;10.03;69.60
68075;BME280;54864;52.002;5.468;2023-02-04T00:48:22;103148.94;;;10.02;69.59
68075;BME280;54864;52.002;5.468;2023-02-04T00:49:24;103143.69;;;9.97;69.89
68075;BME280;54864;52.002;5.468;2023-02-04T00:50:25;103144.56;;;9.95;69.72
68075;BME280;54864;52.002;5.468;2023-02-04T00:51:26;103140.22;;;9.91;69.84
68075;BME280;54864;52.002;5.468;2023-02-04T00:52:27;103136.72;;;9.84;70.11
68075;BME280;54864;52.002;5.468;2023-02-04T00:53:29;103133.25;;;9.68;71.15
68075;BME280;54864;52.002;5.468;2023-02-04T00:54:30;103148.22;;;9.62;71.51
68075;BME280;54864;52.002;5.468;2023-02-04T00:55:31;103148.22;;;9.63;71.36
68075;BME280;54864;52.002;5.468;2023-02-04T00:56:32;103146.47;;;9.64;71.28
68075;BME280;54864;52.002;5.468;2023-02-04T00:57:37;103150.00;;;9.58;71.69
68075;BME280;54864;52.002;5.468;2023-02-04T00:58:39;103151.72;;;9.64;71.26
68075;BME280;54864;52.002;5.468;2023-02-04T00:59:41;103154.38;;;9.61;71.56
68075;BME280;54864;52.002;5.468;2023-02-04T01:00:42;103149.09;;;9.59;71.20
68075;BME280;54864;52.002;5.468;2023-02-04T01:01:44;103151.75;;;9.56;71.77
68075;BME280;54864;52.002;5.468;2023-02-04T01:02:44;103154.38;;;9.61;71.21
68075;BME280;54864;52.002;5.468;2023-02-04T01:03:46;103152.63;;;9.55;71.53
68075;BME280;54864;52.002;5.468;2023-02-04T01:04:47;103166.69;;;9.51;71.52
68075;BME280;54864;52.002;5.468;2023-02-04T01:05:49;103158.81;;;9.45;72.20
68075;BME280;54864;52.002;5.468;2023-02-04T01:06:49;103161.47;;;9.40;72.45
68075;BME280;54864;52.002;5.468;2023-02-04T01:07:51;103156.22;;;9.37;72.22
68075;BME280;54864;52.002;5.468;2023-02-04T01:08:52;103158.84;;;9.33;72.89
68075;BME280;54864;52.002;5.468;2023-02-04T01:09:54;103162.34;;;9.35;72.98
68075;BME280;54864;52.002;5.468;2023-02-04T01:10:54;103165.88;;;9.32;72.84
68075;BME280;54864;52.002;5.468;2023-02-04T01:11:56;103158.84;;;9.34;72.41
68075;BME280;54864;52.002;5.468;2023-02-04T01:12:57;103163.25;;;9.34;72.48
68075;BME280;54864;52.002;5.468;2023-02-04T01:14:00;103167.63;;;9.33;72.77
68075;BME280;54864;52.002;5.468;2023-02-04T01:15:00;103172.88;;;9.35;72.54
68075;BME280;54864;52.002;5.468;2023-02-04T01:16:02;103171.16;;;9.29;73.00
68075;BME280;54864;52.002;5.468;2023-02-04T01:17:03;103167.63;;;9.32;72.70
68075;BME280;54864;52.002;5.468;2023-02-04T01:18:05;103170.28;;;9.29;72.82
68075;BME280;54864;52.002;5.468;2023-02-04T01:19:05;103179.91;;;9.30;72.94
68075;BME280;54864;52.002;5.468;2023-02-04T01:20:08;103181.66;;;9.31;72.88
68075;BME280;54864;52.002;5.468;2023-02-04T01:21:09;103181.66;;;9.32;72.85
68075;BME280;54864;52.002;5.468;2023-02-04T01:22:11;103190.44;;;9.33;72.80
68075;BME280;54864;52.002;5.468;2023-02-04T01:23:12;103185.16;;;9.36;72.57
68075;BME280;54864;52.002;5.468;2023-02-04T01:24:13;103186.91;;;9.37;72.44
68075;BME280;54864;52.002;5.468;2023-02-04T01:25:14;103179.03;;;9.32;72.64
68075;BME280;54864;52.002;5.468;2023-02-04T01:26:17;103189.56;;;9.29;73.00
68075;BME280;54864;52.002;5.468;2023-02-04T01:27:18;103180.81;;;9.27;73.41
68075;BME280;54864;52.002;5.468;2023-02-04T01:28:22;103182.56;;;9.27;73.41
68075;BME280;54864;52.002;5.468;2023-02-04T01:29:24;103182.56;;;9.27;72.80
68075;BME280;54864;52.002;5.468;2023-02-04T01:30:25;103181.69;;;9.23;73.19
68075;BME280;54864;52.002;5.468;2023-02-04T01:31:26;103185.19;;;9.25;72.81
68075;BME280;54864;52.002;5.468;2023-02-04T01:32:30;103196.59;;;9.24;72.88
68075;BME280;54864;52.002;5.468;2023-02-04T01:33:31;103193.09;;;9.24;73.33
68075;BME280;54864;52.002;5.468;2023-02-04T01:34:33;103189.59;;;9.25;72.78
68075;BME280;54864;52.002;5.468;2023-02-04T01:35:33;103195.72;;;9.10;73.88
68075;BME280;54864;52.002;5.468;2023-02-04T01:36:35;103197.47;;;9.03;73.77
68075;BME280;54864;52.002;5.468;2023-02-04T01:37:36;103207.13;;;9.09;73.87
68075;BME280;54864;52.002;5.468;2023-02-04T01:38:38;103200.97;;;9.10;74.05
68075;BME280;54864;52.002;5.468;2023-02-04T01:39:39;103202.72;;;9.09;73.83
68075;BME280;54864;52.002;5.468;2023-02-04T01:40:41;103200.09;;;9.02;74.30
68075;BME280;54864;52.002;5.468;2023-02-04T01:41:42;103208.88;;;9.05;73.84
68075;BME280;54864;52.002;5.468;2023-02-04T01:42:45;103203.63;;;9.05;74.23
68075;BME280;54864;52.002;5.468;2023-02-04T01:43:46;103212.38;;;9.00;74.59
68075;BME280;54864;52.002;5.468;2023-02-04T01:44:50;103207.13;;;9.04;74.55
68075;BME280;54864;52.002;5.468;2023-02-04T01:45:51;103207.13;;;9.03;74.74
68075;BME280;54864;52.002;5.468;2023-02-04T01:46:53;103208.88;;;8.99;74.48
68075;BME280;54864;52.002;5.468;2023-02-04T01:47:54;103205.38;;;9.00;74.83
68075;BME280;54864;52.002;5.468;2023-02-04T01:48:56;103205.38;;;9.00;75.01
68075;BME280;54864;52.002;5.468;2023-02-04T01:49:57;103206.25;;;9.01;74.91
68075;BME280;54864;52.002;5.468;2023-02-04T01:51:04;103204.50;;;9.01;74.81
68075;BME280;54864;52.002;5.468;2023-02-04T01:52:05;103207.13;;;9.04;75.02
68075;BME280;54864;52.002;5.468;2023-02-04T01:53:08;103214.13;;;9.01;74.75
68075;BME280;54864;52.002;5.468;2023-02-04T01:54:10;103217.66;;;8.98;74.70
68075;BME280;54864;52.002;5.468;2023-02-04T01:55:15;103219.41;;;8.98;75.05
68075;BME280;54864;52.002;5.468;2023-02-04T01:56:18;103219.41;;;8.85;75.44
68075;BME280;54864;52.002;5.468;2023-02-04T01:57:20;103222.91;;;8.89;75.90
68075;BME280;54864;52.002;5.468;2023-02-04T01:58:21;103212.41;;;8.81;76.22
68075;BME280;54864;52.002;5.468;2023-02-04T01:59:22;103218.53;;;8.80;76.24
68075;BME280;54864;52.002;5.468;2023-02-04T02:00:26;103227.28;;;8.87;76.27
68075;BME280;54864;52.002;5.468;2023-02-04T02:01:36;103229.06;;;8.86;76.42
68075;BME280;54864;52.002;5.468;2023-02-04T02:02:40;103231.69;;;8.86;76.52
68075;BME280;54864;52.002;5.468;2023-02-04T02:03:42;103235.19;;;8.90;76.54
68075;BME280;54864;52.002;5.468;2023-02-04T02:04:42;103228.16;;;8.81;76.56
68075;BME280;54864;52.002;5.468;2023-02-04T02:05:47;103228.19;;;8.84;76.83
68075;BME280;54864;52.002;5.468;2023-02-04T02:06:51;103233.44;;;8.81;77.34
68075;BME280;54864;52.002;5.468;2023-02-04T02:07:56;103236.06;;;8.75;77.75
68075;BME280;54864;52.002;5.468;2023-02-04T02:08:58;103232.56;;;8.82;77.89
68075;BME280;54864;52.002;5.468;2023-02-04T02:10:01;103232.56;;;8.85;77.24
68075;BME280;54864;52.002;5.468;2023-02-04T02:11:02;103221.16;;;8.76;78.14
68075;BME280;54864;52.002;5.468;2023-02-04T02:12:04;103230.81;;;8.75;78.16
68075;BME280;54864;52.002;5.468;2023-02-04T02:13:06;103225.53;;;8.81;77.79
68075;BME280;54864;52.002;5.468;2023-02-04T02:14:08;103232.56;;;8.88;77.67
68075;BME280;54864;52.002;5.468;2023-02-04T02:15:10;103229.06;;;8.85;77.96
68075;BME280;54864;52.002;5.468;2023-02-04T02:16:13;103236.94;;;8.91;77.92
68075;BME280;54864;52.002;5.468;2023-02-04T02:17:14;103237.81;;;8.87;77.66
68075;BME280;54864;52.002;5.468;2023-02-04T02:18:16;103244.84;;;8.93;77.92
68075;BME280;54864;52.002;5.468;2023-02-04T02:19:22;103236.94;;;8.89;78.11
68075;BME280;54864;52.002;5.468;2023-02-04T02:20:26;103242.22;;;8.91;77.87
68075;BME280;54864;52.002;5.468;2023-02-04T02:21:32;103236.94;;;8.96;77.88
68075;BME280;54864;52.002;5.468;2023-02-04T02:22:38;103238.69;;;9.03;77.78
68075;BME280;54864;52.002;5.468;2023-02-04T02:23:49;103238.69;;;9.04;77.03
68075;BME280;54864;52.002;5.468;2023-02-04T02:24:50;103234.31;;;9.02;77.37
68075;BME280;54864;52.002;5.468;2023-02-04T02:25:52;103251.88;;;9.10;77.43
68075;BME280;54864;52.002;5.468;2023-02-04T02:26:54;103239.59;;;9.11;77.03
68075;BME280;54864;52.002;5.468;2023-02-04T02:27:57;103243.97;;;9.09;77.51
68075;BME280;54864;52.002;5.468;2023-02-04T02:29:00;103239.59;;;9.11;77.48
68075;BME280;54864;52.002;5.468;2023-02-04T02:30:01;103244.00;;;9.12;77.38
68075;BME280;54864;52.002;5.468;2023-02-04T02:31:02;103251.00;;;9.14;77.35
68075;BME280;54864;52.002;5.468;2023-02-04T02:32:04;103240.47;;;9.16;76.86
68075;BME280;54864;52.002;5.468;2023-02-04T02:33:06;103230.81;;;9.09;77.11
68075;BME280;54864;52.002;5.468;2023-02-04T02:34:07;103238.72;;;9.12;77.07
68075;BME280;54864;52.002;5.468;2023-02-04T02:35:10;103243.13;;;9.11;76.98
68075;BME280;54864;52.002;5.468;2023-02-04T02:36:11;103238.72;;;9.12;76.96
68075;BME280;54864;52.002;5.468;2023-02-04T02:37:13;103243.13;;;9.16;77.15
68075;BME280;54864;52.002;5.468;2023-02-04T02:38:16;103236.09;;;9.15;77.05
68075;BME280;54864;52.002;5.468;2023-02-04T02:39:20;103236.97;;;9.12;77.00
68075;BME280;54864;52.002;5.468;2023-02-04T02:40:21;103245.72;;;9.08;77.03
68075;BME280;54864;52.002;5.468;2023-02-04T02:41:23;103246.59;;;9.04;77.24
68075;BME280;54864;52.002;5.468;2023-02-04T02:42:24;103242.22;;;9.03;77.16
68075;BME280;54864;52.002;5.468;2023-02-04T02:43:27;103241.34;;;9.06;77.23
68075;BME280;54864;52.002;5.468;2023-02-04T02:44:28;103245.72;;;9.05;76.82
68075;BME280;54864;52.002;5.468;2023-02-04T02:45:31;103247.47;;;9.02;77.09
68075;BME280;54864;52.002;5.468;2023-02-04T02:46:32;103243.97;;;9.03;77.17
68075;BME280;54864;52.002;5.468;2023-02-04T02:47:34;103238.69;;;9.04;77.09
68075;BME280;54864;52.002;5.468;2023-02-04T02:48:35;103241.34;;;9.04;76.83
68075;BME280;54864;52.002;5.468;2023-02-04T02:49:36;103236.94;;;9.06;76.19
68075;BME280;54864;52.002;5.468;2023-02-04T02:50:39;103245.72;;;9.05;76.38
68075;BME280;54864;52.002;5.468;2023-02-04T02:51:42;103243.97;;;9.03;76.37
68075;BME280;54864;52.002;5.468;2023-02-04T02:52:43;103240.44;;;8.99;76.76
68075;BME280;54864;52.002;5.468;2023-02-04T02:53:46;103237.81;;;8.99;76.66
68075;BME280;54864;52.002;5.468;2023-02-04T02:54:49;103239.56;;;8.99;76.50
68075;BME280;54864;52.002;5.468;2023-02-04T02:55:53;103236.94;;;8.99;76.74
68075;BME280;54864;52.002;5.468;2023-02-04T02:56:54;103242.22;;;8.96;76.63
68075;BME280;54864;52.002;5.468;2023-02-04T02:57:56;103243.09;;;8.95;77.02
68075;BME280;54864;52.002;5.468;2023-02-04T02:59:11;103247.47;;;8.93;76.44
68075;BME280;54864;52.002;5.468;2023-02-04T03:00:15;103240.44;;;8.90;76.93
68075;BME280;54864;52.002;5.468;2023-02-04T03:01:16;103236.94;;;8.86;77.01
68075;BME280;54864;52.002;5.468;2023-02-04T03:02:21;103248.34;;;8.90;76.71
68075;BME280;54864;52.002;5.468;2023-02-04T03:03:24;103244.84;;;8.91;76.82
68075;BME280;54864;52.002;5.468;2023-02-04T03:04:29;103243.09;;;8.92;76.64
68075;BME280;54864;52.002;5.468;2023-02-04T03:05:34;103248.34;;;8.88;77.01
68075;BME280;54864;52.002;5.468;2023-02-04T03:06:37;103239.56;;;8.82;76.86
68075;BME280;54864;52.002;5.468;2023-02-04T03:07:38;103248.34;;;8.82;77.56
68075;BME280;54864;52.002;5.468;2023-02-04T03:08:40;103244.81;;;8.80;77.06
68075;BME280;54864;52.002;5.468;2023-02-04T03:09:42;103249.22;;;8.80;77.04
68075;BME280;54864;52.002;5.468;2023-02-04T03:10:46;103239.56;;;8.74;77.37
68075;BME280;54864;52.002;5.468;2023-02-04T03:11:47;103249.22;;;8.75;76.78
68075;BME280;54864;52.002;5.468;2023-02-04T03:12:49;103247.44;;;8.70;76.63
68075;BME280;54864;52.002;5.468;2023-02-04T03:13:50;103251.84;;;8.68;76.37
68075;BME280;54864;52.002;5.468;2023-02-04T03:14:52;103257.09;;;8.65;76.35
68075;BME280;54864;52.002;5.468;2023-02-04T03:15:54;103256.19;;;8.61;76.44
68075;BME280;54864;52.002;5.468;2023-02-04T03:16:56;103256.19;;;8.61;76.35
68075;BME280;54864;52.002;5.468;2023-02-04T03:17:58;103253.50;;;8.43;76.70
68075;BME280;54864;52.002;5.468;2023-02-04T03:19:00;103253.50;;;8.44;76.97
68075;BME280;54864;52.002;5.468;2023-02-04T03:20:02;103256.09;;;8.34;77.85
68075;BME280;54864;52.002;5.468;2023-02-04T03:21:06;103255.16;;;8.22;77.56
68075;BME280;54864;52.002;5.468;2023-02-04T03:22:07;103251.66;;;8.23;77.73
68075;BME280;54864;52.002;5.468;2023-02-04T03:23:09;103260.44;;;8.30;77.35
68075;BME280;54864;52.002;5.468;2023-02-04T03:24:11;103257.84;;;8.33;77.59
68075;BME280;54864;52.002;5.468;2023-02-04T03:25:13;103263.94;;;8.32;77.59
68075;BME280;54864;52.002;5.468;2023-02-04T03:26:15;103264.81;;;8.30;77.22
68075;BME280;54864;52.002;5.468;2023-02-04T03:27:17;103258.69;;;8.27;77.40
68075;BME280;54864;52.002;5.468;2023-02-04T03:28:18;103265.66;;;8.18;78.39
68075;BME280;54864;52.002;5.468;2023-02-04T03:29:20;103270.06;;;8.22;78.38
68075;BME280;54864;52.002;5.468;2023-02-04T03:30:22;103270.91;;;8.21;78.32
68075;BME280;54864;52.002;5.468;2023-02-04T03:31:24;103272.66;;;8.20;79.01
68075;BME280;54864;52.002;5.468;2023-02-04T03:32:24;103270.94;;;8.25;78.85
68075;BME280;54864;52.002;5.468;2023-02-04T03:33:27;103270.06;;;8.25;78.48
68075;BME280;54864;52.002;5.468;2023-02-04T03:34:30;103270.06;;;8.26;78.42
68075;BME280;54864;52.002;5.468;2023-02-04T03:35:32;103266.53;;;8.21;78.56
68075;BME280;54864;52.002;5.468;2023-02-04T03:36:33;103265.69;;;8.24;78.46
68075;BME280;54864;52.002;5.468;2023-02-04T03:37:35;103269.19;;;8.24;78.22
68075;BME280;54864;52.002;5.468;2023-02-04T03:38:36;103269.16;;;8.21;78.99
68075;BME280;54864;52.002;5.468;2023-02-04T03:39:38;103274.44;;;8.21;78.58
68075;BME280;54864;52.002;5.468;2023-02-04T03:40:39;103270.03;;;8.17;78.22
68075;BME280;54864;52.002;5.468;2023-02-04T03:41:42;103276.16;;;8.18;77.85
68075;BME280;54864;52.002;5.468;2023-02-04T03:42:43;103276.16;;;8.16;78.50
68075;BME280;54864;52.002;5.468;2023-02-04T03:43:45;103275.25;;;8.11;77.96
68075;BME280;54864;52.002;5.468;2023-02-04T03:44:45;103267.34;;;8.04;78.35
68075;BME280;54864;52.002;5.468;2023-02-04T03:45:47;103278.75;;;8.07;78.00
68075;BME280;54864;52.002;5.468;2023-02-04T03:46:48;103271.75;;;8.06;78.23
68075;BME280;54864;52.002;5.468;2023-02-04T03:47:54;103271.69;;;7.94;78.77
68075;BME280;54864;52.002;5.468;2023-02-04T03:48:55;103278.72;;;8.00;79.15
68075;BME280;54864;52.002;5.468;2023-02-04T03:49:57;103268.19;;;7.98;78.00
68075;BME280;54864;52.002;5.468;2023-02-04T03:50:58;103276.03;;;7.87;78.39
68075;BME280;54864;52.002;5.468;2023-02-04T03:51:59;103277.78;;;7.88;79.21
68075;BME280;54864;52.002;5.468;2023-02-04T03:53:00;103272.53;;;7.87;79.06
68075;BME280;54864;52.002;5.468;2023-02-04T03:54:02;103265.50;;;7.83;78.83
68075;BME280;54864;52.002;5.468;2023-02-04T03:55:03;103274.28;;;7.91;78.67
68075;BME280;54864;52.002;5.468;2023-02-04T03:56:05;103268.94;;;7.79;78.95
68075;BME280;54864;52.002;5.468;2023-02-04T03:57:08;103275.13;;;7.81;79.06
68075;BME280;54864;52.002;5.468;2023-02-04T03:58:10;103276.88;;;7.82;78.92
68075;BME280;54864;52.002;5.468;2023-02-04T03:59:11;103269.00;;;7.80;78.41
68075;BME280;54864;52.002;5.468;2023-02-04T04:00:13;103275.00;;;7.69;78.69
68075;BME280;54864;52.002;5.468;2023-02-04T04:01:14;103273.22;;;7.63;80.48
68075;BME280;54864;52.002;5.468;2023-02-04T04:02:16;103274.13;;;7.68;79.93
68075;BME280;54864;52.002;5.468;2023-02-04T04:03:17;103268.00;;;7.64;80.54
68075;BME280;54864;52.002;5.468;2023-02-04T04:04:18;103278.53;;;7.71;80.24
68075;BME280;54864;52.002;5.468;2023-02-04T04:05:19;103275.91;;;7.74;80.15
68075;BME280;54864;52.002;5.468;2023-02-04T04:06:21;103278.56;;;7.75;79.86
68075;BME280;54864;52.002;5.468;2023-02-04T04:07:22;103280.31;;;7.78;79.98
68075;BME280;54864;52.002;5.468;2023-02-04T04:08:24;103272.50;;;7.81;79.96
68075;BME280;54864;52.002;5.468;2023-02-04T04:09:24;103275.13;;;7.81;79.85
68075;BME280;54864;52.002;5.468;2023-02-04T04:10:26;103287.31;;;7.77;80.50
68075;BME280;54864;52.002;5.468;2023-02-04T04:11:28;103276.81;;;7.74;79.96
68075;BME280;54864;52.002;5.468;2023-02-04T04:12:31;103277.69;;;7.79;80.60
68075;BME280;54864;52.002;5.468;2023-02-04T04:13:32;103277.75;;;7.82;80.25
68075;BME280;54864;52.002;5.468;2023-02-04T04:14:34;103270.69;;;7.80;80.57
68075;BME280;54864;52.002;5.468;2023-02-04T04:15:34;103274.25;;;7.85;80.24
68075;BME280;54864;52.002;5.468;2023-02-04T04:16:36;103267.28;;;7.88;80.09
68075;BME280;54864;52.002;5.468;2023-02-04T04:17:37;103272.53;;;7.88;80.00
68075;BME280;54864;52.002;5.468;2023-02-04T04:18:39;103268.16;;;7.92;79.95
68075;BME280;54864;52.002;5.468;2023-02-04T04:19:39;103283.06;;;7.93;80.04
68075;BME280;54864;52.002;5.468;2023-02-04T04:20:43;103270.75;;;7.84;80.51
68075;BME280;54864;52.002;5.468;2023-02-04T04:21:45;103274.28;;;7.86;80.75
68075;BME280;54864;52.002;5.468;2023-02-04T04:22:45;103274.28;;;7.86;80.89
68075;BME280;54864;52.002;5.468;2023-02-04T04:23:47;103279.53;;;7.89;80.02
68075;BME280;54864;52.002;5.468;2023-02-04T04:24:48;103283.91;;;7.87;80.29
68075;BME280;54864;52.002;5.468;2023-02-04T04:25:49;103284.78;;;7.85;80.42
68075;BME280;54864;52.002;5.468;2023-02-04T04:26:50;103282.16;;;7.88;80.17
68075;BME280;54864;52.002;5.468;2023-02-04T04:27:53;103286.53;;;7.89;80.40
68075;BME280;54864;52.002;5.468;2023-02-04T04:28:54;103290.03;;;7.88;80.30
68075;BME280;54864;52.002;5.468;2023-02-04T04:29:56;103281.28;;;7.89;80.28
68075;BME280;54864;52.002;5.468;2023-02-04T04:30:57;103282.19;;;7.91;80.32
68075;BME280;54864;52.002;5.468;2023-02-04T04:31:58;103284.81;;;7.94;80.40
68075;BME280;54864;52.002;5.468;2023-02-04T04:32:59;103276.94;;;7.94;79.59
68075;BME280;54864;52.002;5.468;2023-02-04T04:34:01;103283.06;;;7.93;79.88
68075;BME280;54864;52.002;5.468;2023-02-04T04:35:02;103282.19;;;7.91;79.77
68075;BME280;54864;52.002;5.468;2023-02-04T04:36:04;103279.53;;;7.91;79.69
68075;BME280;54864;52.002;5.468;2023-02-04T04:37:05;103292.69;;;7.91;79.49
68075;BME280;54864;52.002;5.468;2023-02-04T04:38:07;103297.03;;;7.87;79.44
68075;BME280;54864;52.002;5.468;2023-02-04T04:39:08;103297.94;;;7.91;79.13
68075;BME280;54864;52.002;5.468;2023-02-04T04:40:11;103296.16;;;7.88;78.82
68075;BME280;54864;52.002;5.468;2023-02-04T04:41:12;103301.41;;;7.87;79.08
68075;BME280;54864;52.002;5.468;2023-02-04T04:42:14;103299.66;;;7.84;79.23
68075;BME280;54864;52.002;5.468;2023-02-04T04:43:16;103292.66;;;7.85;79.16
68075;BME280;54864;52.002;5.468;2023-02-04T04:44:18;103286.50;;;7.81;78.77
68075;BME280;54864;52.002;5.468;2023-02-04T04:45:19;103288.22;;;7.79;78.75
68075;BME280;54864;52.002;5.468;2023-02-04T04:46:21;103291.75;;;7.81;79.08
68075;BME280;54864;52.002;5.468;2023-02-04T04:47:22;103296.13;;;7.81;79.32
68075;BME280;54864;52.002;5.468;2023-02-04T04:48:23;103293.50;;;7.81;79.24
68075;BME280;54864;52.002;5.468;2023-02-04T04:49:24;103295.19;;;7.77;79.26
68075;BME280;54864;52.002;5.468;2023-02-04T04:50:26;103300.44;;;7.74;79.44
68075;BME280;54864;52.002;5.468;2023-02-04T04:51:29;103292.56;;;7.76;78.84
68075;BME280;54864;52.002;5.468;2023-02-04T04:52:31;103296.94;;;7.77;78.69
68075;BME280;54864;52.002;5.468;2023-02-04T04:53:32;103295.19;;;7.74;79.05
68075;BME280;54864;52.002;5.468;2023-02-04T04:54:34;103299.53;;;7.71;79.30
68075;BME280;54864;52.002;5.468;2023-02-04T04:55:34;103299.53;;;7.71;78.96
68075;BME280;54864;52.002;5.468;2023-02-04T04:56:36;103299.50;;;7.68;78.83
68075;BME280;54864;52.002;5.468;2023-02-04T04:57:37;103300.38;;;7.63;79.66
68075;BME280;54864;52.002;5.468;2023-02-04T04:58:40;103304.75;;;7.66;78.77
68075;BME280;54864;52.002;5.468;2023-02-04T04:59:41;103303.88;;;7.67;78.40
68075;BME280;54864;52.002;5.468;2023-02-04T05:00:43;103303.00;;;7.63;78.79
68075;BME280;54864;52.002;5.468;2023-02-04T05:01:43;103306.50;;;7.64;78.18
68075;BME280;54864;52.002;5.468;2023-02-04T05:02:45;103303.78;;;7.53;78.74
68075;BME280;54864;52.002;5.468;2023-02-04T05:03:46;103303.78;;;7.52;78.46
68075;BME280;54864;52.002;5.468;2023-02-04T05:04:48;103303.75;;;7.46;78.76
68075;BME280;54864;52.002;5.468;2023-02-04T05:05:49;103301.97;;;7.43;78.62
68075;BME280;54864;52.002;5.468;2023-02-04T05:06:51;103307.19;;;7.40;78.81
68075;BME280;54864;52.002;5.468;2023-02-04T05:07:51;103303.66;;;7.35;78.59
68075;BME280;54864;52.002;5.468;2023-02-04T05:08:54;103311.47;;;7.26;79.02
68075;BME280;54864;52.002;5.468;2023-02-04T05:09:54;103305.41;;;7.33;79.07
68075;BME280;54864;52.002;5.468;2023-02-04T05:10:56;103305.31;;;7.24;79.35
68075;BME280;54864;52.002;5.468;2023-02-04T05:11:57;103306.16;;;7.21;79.41
68075;BME280;54864;52.002;5.468;2023-02-04T05:13:03;103302.72;;;7.25;79.53
68075;BME280;54864;52.002;5.468;2023-02-04T05:14:05;103295.72;;;7.26;79.79
68075;BME280;54864;52.002;5.468;2023-02-04T05:15:07;103302.69;;;7.24;80.10
68075;BME280;54864;52.002;5.468;2023-02-04T05:16:08;103307.94;;;7.24;79.93
68075;BME280;54864;52.002;5.468;2023-02-04T05:17:11;103306.16;;;7.20;80.50
68075;BME280;54864;52.002;5.468;2023-02-04T05:18:12;103306.03;;;7.11;81.36
68075;BME280;54864;52.002;5.468;2023-02-04T05:19:13;103312.19;;;7.14;81.21
68075;BME280;54864;52.002;5.468;2023-02-04T05:20:14;103308.78;;;7.20;81.57
68075;BME280;54864;52.002;5.468;2023-02-04T05:21:16;103306.22;;;7.27;81.55
68075;BME280;54864;52.002;5.468;2023-02-04T05:22:17;103305.34;;;7.27;80.92
68075;BME280;54864;52.002;5.468;2023-02-04T05:23:21;103302.78;;;7.33;81.04
68075;BME280;54864;52.002;5.468;2023-02-04T05:24:21;103311.50;;;7.30;81.55
68075;BME280;54864;52.002;5.468;2023-02-04T05:25:23;103306.25;;;7.32;81.53
68075;BME280;54864;52.002;5.468;2023-02-04T05:26:24;103310.56;;;7.24;81.73